sensor_id;sensor_type;location;lat;lon;timestamp;pressure;altitude;pressure_sealevel;temperature;humidity
22753;BME280;11543;43.144;24.684;2023-02-01T08:17:08;99038.28;;;5.75;64.29
22753;BME280;11543;43.144;24.684;2023-02-01T08:19:55;99038.41;;;5.74;63.85
22753;BME280;11543;43.144;24.684;2023-02-01T08:22:26;99045.00;;;5.92;64.31
22753;BME280;11543;43.144;24.684;2023-02-01T08:24:52;99043.50;;;5.66;63.31
22753;BME280;11543;43.144;24.684;2023-02-01T08:27:26;99043.13;;;5.59;63.36
22753;BME280;11543;43.144;24.684;2023-02-01T08:29:52;99050.88;;;5.73;63.23
22753;BME280;11543;43.144;24.684;2023-02-01T08:32:19;99031.53;;;5.71;63.91
22753;BME280;11543;43.144;24.684;2023-02-01T08:34:47;99032.00;;;5.88;64.50
22753;BME280;11543;43.144;24.684;2023-02-01T08:37:16;99037.63;;;6.07;63.61
22753;BME280;11543;43.144;24.684;2023-02-01T08:39:41;99040.78;;;6.12;63.74
22753;BME280;11543;43.144;24.684;2023-02-01T08:42:08;99061.13;;;6.24;63.61
22753;BME280;11543;43.144;24.684;2023-02-01T08:44:52;99062.81;;;6.25;62.88
22753;BME280;11543;43.144;24.684;2023-02-01T08:47:18;99058.31;;;6.26;63.44
22753;BME280;11543;43.144;24.684;2023-02-01T08:49:43;99041.63;;;6.13;61.79
22753;BME280;11543;43.144;24.684;2023-02-01T08:52:08;99036.91;;;6.16;62.62
22753;BME280;11543;43.144;24.684;2023-02-01T08:54:34;99031.09;;;6.22;62.78
22753;BME280;11543;43.144;24.684;2023-02-01T08:56:59;99032.78;;;6.23;61.95
22753;BME280;11543;43.144;24.684;2023-02-01T08:59:25;99037.38;;;6.32;63.16
22753;BME280;11543;43.144;24.684;2023-02-01T09:01:50;99031.56;;;6.16;61.33
22753;BME280;11543;43.144;24.684;2023-02-01T09:04:15;99043.91;;;6.17;61.71
22753;BME280;11543;43.144;24.684;2023-02-01T09:06:41;99049.25;;;6.17;61.33
22753;BME280;11543;43.144;24.684;2023-02-01T09:09:06;99040.28;;;6.18;60.63
22753;BME280;11543;43.144;24.684;2023-02-01T09:11:32;99039.44;;;6.18;61.62
22753;BME280;11543;43.144;24.684;2023-02-01T09:13:57;99051.06;;;6.28;61.42
22753;BME280;11543;43.144;24.684;2023-02-01T09:16:23;99033.97;;;6.30;61.71
22753;BME280;11543;43.144;24.684;2023-02-01T09:18:48;99040.00;;;6.44;61.77
22753;BME280;11543;43.144;24.684;2023-02-01T09:21:14;99032.13;;;6.42;61.53
22753;BME280;11543;43.144;24.684;2023-02-01T09:23:39;99040.59;;;6.47;61.26
22753;BME280;11543;43.144;24.684;2023-02-01T09:26:05;99035.13;;;6.60;61.19
22753;BME280;11543;43.144;24.684;2023-02-01T09:28:32;99031.22;;;6.64;61.30
22753;BME280;11543;43.144;24.684;2023-02-01T09:30:59;99024.81;;;6.66;60.40
22753;BME280;11543;43.144;24.684;2023-02-01T09:33:26;99017.91;;;6.64;60.49
22753;BME280;11543;43.144;24.684;2023-02-01T09:35:59;99020.91;;;6.70;61.15
22753;BME280;11543;43.144;24.684;2023-02-01T09:38:26;99010.31;;;6.80;61.26
22753;BME280;11543;43.144;24.684;2023-02-01T09:40:53;99009.31;;;6.92;59.23
22753;BME280;11543;43.144;24.684;2023-02-01T09:46:28;98998.34;;;7.27;59.25
22753;BME280;11543;43.144;24.684;2023-02-01T09:48:57;99001.66;;;7.41;59.44
22753;BME280;11543;43.144;24.684;2023-02-01T09:51:31;98998.09;;;7.51;57.63
22753;BME280;11543;43.144;24.684;2023-02-01T09:54:11;98998.78;;;7.53;56.84
22753;BME280;11543;43.144;24.684;2023-02-01T09:56:53;98977.75;;;7.60;58.33
22753;BME280;11543;43.144;24.684;2023-02-01T09:59:42;98971.03;;;7.65;56.83
22753;BME280;11543;43.144;24.684;2023-02-01T10:02:17;98964.81;;;7.86;58.19
22753;BME280;11543;43.144;24.684;2023-02-01T10:04:43;98967.81;;;8.02;57.70
22753;BME280;11543;43.144;24.684;2023-02-01T10:07:20;98967.59;;;8.24;56.84
22753;BME280;11543;43.144;24.684;2023-02-01T10:17:53;98977.75;;;8.30;55.11
22753;BME280;11543;43.144;24.684;2023-02-01T10:20:57;98970.44;;;8.32;55.76
22753;BME280;11543;43.144;24.684;2023-02-01T10:23:43;98967.06;;;8.30;54.81
22753;BME280;11543;43.144;24.684;2023-02-01T10:26:25;98961.13;;;8.17;52.91
22753;BME280;11543;43.144;24.684;2023-02-01T10:29:03;98964.78;;;8.16;52.22
22753;BME280;11543;43.144;24.684;2023-02-01T10:31:32;98949.00;;;8.13;53.40
22753;BME280;11543;43.144;24.684;2023-02-01T10:34:07;98951.28;;;8.27;53.62
22753;BME280;11543;43.144;24.684;2023-02-01T10:36:52;98946.00;;;8.47;53.08
22753;BME280;11543;43.144;24.684;2023-02-01T10:39:18;98939.78;;;8.37;52.23
22753;BME280;11543;43.144;24.684;2023-02-01T10:41:44;98933.31;;;8.39;51.83
22753;BME280;11543;43.144;24.684;2023-02-01T10:44:23;98926.88;;;8.51;53.26
22753;BME280;11543;43.144;24.684;2023-02-01T10:46:50;98924.91;;;8.63;53.77
22753;BME280;11543;43.144;24.684;2023-02-01T10:49:35;98917.00;;;8.52;53.32
22753;BME280;11543;43.144;24.684;2023-02-01T10:52:14;98931.94;;;8.54;52.17
22753;BME280;11543;43.144;24.684;2023-02-01T10:54:41;98927.56;;;8.44;52.76
22753;BME280;11543;43.144;24.684;2023-02-01T10:57:20;98921.38;;;8.43;51.64
22753;BME280;11543;43.144;24.684;2023-02-01T10:59:46;98909.97;;;8.41;52.64
22753;BME280;11543;43.144;24.684;2023-02-01T11:02:26;98912.22;;;8.36;53.77
22753;BME280;11543;43.144;24.684;2023-02-01T11:05:03;98894.06;;;8.40;53.07
22753;BME280;11543;43.144;24.684;2023-02-01T11:07:29;98896.19;;;8.46;53.70
22753;BME280;11543;43.144;24.684;2023-02-01T11:09:55;98878.72;;;8.61;53.89
22753;BME280;11543;43.144;24.684;2023-02-01T11:12:36;98898.19;;;8.73;53.69
22753;BME280;11543;43.144;24.684;2023-02-01T11:17:42;98880.44;;;8.81;52.49
22753;BME280;11543;43.144;24.684;2023-02-01T11:20:20;98887.31;;;8.93;52.13
22753;BME280;11543;43.144;24.684;2023-02-01T11:22:53;98878.69;;;9.00;53.06
22753;BME280;11543;43.144;24.684;2023-02-01T11:25:20;98868.38;;;9.14;53.73
22753;BME280;11543;43.144;24.684;2023-02-01T11:27:47;98852.41;;;9.32;53.22
22753;BME280;11543;43.144;24.684;2023-02-01T11:30:18;98845.34;;;9.31;52.17
22753;BME280;11543;43.144;24.684;2023-02-01T11:32:48;98859.53;;;9.41;51.49
22753;BME280;11543;43.144;24.684;2023-02-01T11:35:19;98841.94;;;9.39;50.66
22753;BME280;11543;43.144;24.684;2023-02-01T11:37:50;98849.41;;;9.35;51.07
22753;BME280;11543;43.144;24.684;2023-02-01T11:45:58;98828.78;;;9.18;51.21
22753;BME280;11543;43.144;24.684;2023-02-01T11:48:26;98827.69;;;9.11;51.34
22753;BME280;11543;43.144;24.684;2023-02-01T12:00:35;98823.44;;;9.18;51.71
22753;BME280;11543;43.144;24.684;2023-02-01T12:03:05;98829.94;;;9.06;51.57
22753;BME280;11543;43.144;24.684;2023-02-01T12:08:26;98829.94;;;9.06;51.99
22753;BME280;11543;43.144;24.684;2023-02-01T12:25:23;98824.22;;;9.28;49.52
22753;BME280;11543;43.144;24.684;2023-02-01T12:31:19;98810.41;;;9.33;49.67
22753;BME280;11543;43.144;24.684;2023-02-01T12:34:03;98821.09;;;9.33;49.02
22753;BME280;11543;43.144;24.684;2023-02-01T12:42:32;98806.44;;;9.37;49.79
22753;BME280;11543;43.144;24.684;2023-02-01T12:45:02;98815.97;;;9.49;49.33
22753;BME280;11543;43.144;24.684;2023-02-01T12:47:49;98818.47;;;9.50;50.38
22753;BME280;11543;43.144;24.684;2023-02-01T12:50:28;98821.00;;;9.62;50.18
22753;BME280;11543;43.144;24.684;2023-02-01T12:53:15;98812.97;;;9.62;50.82
22753;BME280;11543;43.144;24.684;2023-02-01T12:56:30;98798.19;;;9.57;50.51
22753;BME280;11543;43.144;24.684;2023-02-01T12:58:59;98798.88;;;9.60;49.94
22753;BME280;11543;43.144;24.684;2023-02-01T13:01:35;98790.31;;;9.46;50.13
22753;BME280;11543;43.144;24.684;2023-02-01T13:07:14;98808.97;;;9.38;48.45
22753;BME280;11543;43.144;24.684;2023-02-01T13:09:50;98826.72;;;9.39;48.24
22753;BME280;11543;43.144;24.684;2023-02-01T13:12:24;98809.84;;;9.29;48.78
22753;BME280;11543;43.144;24.684;2023-02-01T13:15:39;98813.63;;;9.36;47.61
22753;BME280;11543;43.144;24.684;2023-02-01T13:17:39;98814.22;;;9.30;48.08
22753;BME280;11543;43.144;24.684;2023-02-01T13:22:45;98824.78;;;9.32;48.53
22753;BME280;11543;43.144;24.684;2023-02-01T13:28:20;98803.41;;;9.22;49.20
22753;BME280;11543;43.144;24.684;2023-02-01T13:37:30;98810.28;;;9.24;48.59
22753;BME280;11543;43.144;24.684;2023-02-01T13:40:17;98813.00;;;9.15;47.63
22753;BME280;11543;43.144;24.684;2023-02-01T13:42:55;98810.19;;;9.16;47.97
22753;BME280;11543;43.144;24.684;2023-02-01T13:45:25;98818.38;;;9.15;47.69
22753;BME280;11543;43.144;24.684;2023-02-01T13:47:56;98799.44;;;8.89;47.43
22753;BME280;11543;43.144;24.684;2023-02-01T13:50:38;98795.06;;;8.98;48.07
22753;BME280;11543;43.144;24.684;2023-02-01T13:55:39;98792.84;;;8.83;47.46
22753;BME280;11543;43.144;24.684;2023-02-01T13:58:36;98800.47;;;8.78;46.99
22753;BME280;11543;43.144;24.684;2023-02-01T14:04:00;98798.50;;;8.71;46.07
22753;BME280;11543;43.144;24.684;2023-02-01T14:09:12;98811.75;;;8.53;47.65
22753;BME280;11543;43.144;24.684;2023-02-01T14:11:50;98802.03;;;8.52;47.44
22753;BME280;11543;43.144;24.684;2023-02-01T14:19:19;98814.44;;;8.34;47.17
22753;BME280;11543;43.144;24.684;2023-02-01T14:21:54;98806.13;;;8.17;47.17
22753;BME280;11543;43.144;24.684;2023-02-01T14:24:29;98798.53;;;8.22;47.82
22753;BME280;11543;43.144;24.684;2023-02-01T14:29:40;98813.84;;;8.30;48.50
22753;BME280;11543;43.144;24.684;2023-02-01T14:32:14;98820.47;;;8.26;48.75
22753;BME280;11543;43.144;24.684;2023-02-01T14:42:20;98811.19;;;8.01;48.69
22753;BME280;11543;43.144;24.684;2023-02-01T14:44:48;98820.19;;;8.00;48.71
22753;BME280;11543;43.144;24.684;2023-02-01T14:52:34;98825.22;;;7.84;49.41
22753;BME280;11543;43.144;24.684;2023-02-01T14:55:12;98833.94;;;7.86;49.53
22753;BME280;11543;43.144;24.684;2023-02-01T14:57:42;98819.41;;;7.79;48.99
22753;BME280;11543;43.144;24.684;2023-02-01T15:00:23;98837.03;;;7.91;48.97
22753;BME280;11543;43.144;24.684;2023-02-01T15:02:51;98836.75;;;7.94;49.26
22753;BME280;11543;43.144;24.684;2023-02-01T15:05:33;98821.56;;;7.85;49.05
22753;BME280;11543;43.144;24.684;2023-02-01T15:08:07;98833.38;;;7.92;49.37
22753;BME280;11543;43.144;24.684;2023-02-01T15:10:43;98829.59;;;7.94;49.67
22753;BME280;11543;43.144;24.684;2023-02-01T15:13:29;98838.72;;;7.92;49.07
22753;BME280;11543;43.144;24.684;2023-02-01T15:16:05;98828.59;;;7.86;49.09
22753;BME280;11543;43.144;24.684;2023-02-01T15:18:34;98821.28;;;7.88;49.77
22753;BME280;11543;43.144;24.684;2023-02-01T15:21:02;98818.50;;;7.99;50.17
22753;BME280;11543;43.144;24.684;2023-02-01T15:23:29;98825.94;;;8.05;50.38
22753;BME280;11543;43.144;24.684;2023-02-01T15:25:55;98823.84;;;7.99;49.64
22753;BME280;11543;43.144;24.684;2023-02-01T15:28:21;98823.25;;;7.95;49.60
22753;BME280;11543;43.144;24.684;2023-02-01T15:30:54;98827.63;;;7.87;48.90
22753;BME280;11543;43.144;24.684;2023-02-01T15:33:24;98827.13;;;7.72;49.54
22753;BME280;11543;43.144;24.684;2023-02-01T15:35:55;98827.97;;;7.73;49.43
22753;BME280;11543;43.144;24.684;2023-02-01T15:46:31;98823.06;;;7.68;50.37
22753;BME280;11543;43.144;24.684;2023-02-01T15:48:59;98818.97;;;7.74;50.42
22753;BME280;11543;43.144;24.684;2023-02-01T15:51:28;98818.25;;;7.52;50.33
22753;BME280;11543;43.144;24.684;2023-02-01T15:54:02;98819.94;;;7.53;50.23
22753;BME280;11543;43.144;24.684;2023-02-01T15:56:40;98834.41;;;7.60;50.27
22753;BME280;11543;43.144;24.684;2023-02-01T15:59:15;98834.97;;;7.54;50.32
22753;BME280;11543;43.144;24.684;2023-02-01T16:01:48;98847.09;;;7.78;51.03
22753;BME280;11543;43.144;24.684;2023-02-01T16:04:45;98822.91;;;7.70;50.63
22753;BME280;11543;43.144;24.684;2023-02-01T16:07:26;98846.59;;;7.84;50.35
22753;BME280;11543;43.144;24.684;2023-02-01T16:09:55;98840.69;;;7.90;50.20
22753;BME280;11543;43.144;24.684;2023-02-01T16:12:31;98858.69;;;7.97;50.26
22753;BME280;11543;43.144;24.684;2023-02-01T16:15:00;98851.38;;;7.90;49.83
22753;BME280;11543;43.144;24.684;2023-02-01T16:17:25;98850.13;;;7.94;50.52
22753;BME280;11543;43.144;24.684;2023-02-01T16:19:51;98859.53;;;7.98;50.35
22753;BME280;11543;43.144;24.684;2023-02-01T16:22:16;98852.78;;;7.94;50.52
22753;BME280;11543;43.144;24.684;2023-02-01T16:24:41;98868.13;;;8.02;50.64
22753;BME280;11543;43.144;24.684;2023-02-01T16:27:07;98860.69;;;8.05;50.70
22753;BME280;11543;43.144;24.684;2023-02-01T16:29:33;98855.19;;;8.07;50.86
22753;BME280;11543;43.144;24.684;2023-02-01T16:31:59;98865.75;;;8.08;50.38
22753;BME280;11543;43.144;24.684;2023-02-01T16:34:24;98853.91;;;8.01;50.12
22753;BME280;11543;43.144;24.684;2023-02-01T16:36:50;98859.81;;;7.95;49.45
22753;BME280;11543;43.144;24.684;2023-02-01T16:39:20;98855.59;;;7.83;50.27
22753;BME280;11543;43.144;24.684;2023-02-01T16:41:45;98849.63;;;7.70;50.10
22753;BME280;11543;43.144;24.684;2023-02-01T16:44:11;98856.06;;;7.57;50.08
22753;BME280;11543;43.144;24.684;2023-02-01T16:46:40;98860.69;;;7.55;50.78
22753;BME280;11543;43.144;24.684;2023-02-01T16:49:28;98843.78;;;7.45;50.31
22753;BME280;11543;43.144;24.684;2023-02-01T16:51:56;98842.47;;;7.30;51.05
22753;BME280;11543;43.144;24.684;2023-02-01T16:54:23;98845.31;;;7.08;51.00
22753;BME280;11543;43.144;24.684;2023-02-01T16:56:49;98851.31;;;7.00;51.38
22753;BME280;11543;43.144;24.684;2023-02-01T16:59:15;98854.00;;;7.00;51.55
22753;BME280;11543;43.144;24.684;2023-02-01T17:01:40;98851.75;;;6.84;51.94
22753;BME280;11543;43.144;24.684;2023-02-01T17:04:08;98846.69;;;6.81;51.82
22753;BME280;11543;43.144;24.684;2023-02-01T17:06:36;98848.66;;;6.79;52.03
22753;BME280;11543;43.144;24.684;2023-02-01T17:09:02;98849.16;;;6.73;52.63
22753;BME280;11543;43.144;24.684;2023-02-01T17:11:29;98853.00;;;6.80;53.23
22753;BME280;11543;43.144;24.684;2023-02-01T17:13:56;98835.56;;;6.76;52.97
22753;BME280;11543;43.144;24.684;2023-02-01T17:16:27;98841.34;;;6.81;52.71
22753;BME280;11543;43.144;24.684;2023-02-01T17:18:56;98840.56;;;6.90;52.61
22753;BME280;11543;43.144;24.684;2023-02-01T17:21:24;98839.59;;;6.91;52.71
22753;BME280;11543;43.144;24.684;2023-02-01T17:23:50;98818.88;;;6.74;52.63
22753;BME280;11543;43.144;24.684;2023-02-01T17:26:19;98811.59;;;6.76;53.23
22753;BME280;11543;43.144;24.684;2023-02-01T17:28:44;98823.69;;;6.80;52.79
22753;BME280;11543;43.144;24.684;2023-02-01T17:31:13;98817.69;;;6.67;53.38
22753;BME280;11543;43.144;24.684;2023-02-01T17:33:40;98820.88;;;6.61;52.98
22753;BME280;11543;43.144;24.684;2023-02-01T17:36:06;98834.88;;;6.74;53.00
22753;BME280;11543;43.144;24.684;2023-02-01T17:38:32;98839.94;;;6.77;52.70
22753;BME280;11543;43.144;24.684;2023-02-01T17:41:01;98804.81;;;6.72;52.83
22753;BME280;11543;43.144;24.684;2023-02-01T17:43:26;98806.78;;;6.70;52.91
22753;BME280;11543;43.144;24.684;2023-02-01T17:46:13;98802.88;;;6.74;52.43
22753;BME280;11543;43.144;24.684;2023-02-01T17:48:39;98812.56;;;6.75;52.34
22753;BME280;11543;43.144;24.684;2023-02-01T17:51:20;98808.53;;;6.81;52.59
22753;BME280;11543;43.144;24.684;2023-02-01T17:53:48;98814.44;;;6.84;52.60
22753;BME280;11543;43.144;24.684;2023-02-01T17:56:16;98810.78;;;6.85;52.71
22753;BME280;11543;43.144;24.684;2023-02-01T17:58:44;98816.44;;;6.92;52.58
22753;BME280;11543;43.144;24.684;2023-02-01T18:01:12;98819.22;;;6.90;52.98
22753;BME280;11543;43.144;24.684;2023-02-01T18:03:38;98826.25;;;6.91;53.03
22753;BME280;11543;43.144;24.684;2023-02-01T18:06:17;98814.97;;;6.78;53.40
22753;BME280;11543;43.144;24.684;2023-02-01T18:08:43;98834.38;;;6.90;53.46
22753;BME280;11543;43.144;24.684;2023-02-01T18:11:19;98824.00;;;6.87;52.99
22753;BME280;11543;43.144;24.684;2023-02-01T18:13:46;98834.75;;;6.96;53.82
22753;BME280;11543;43.144;24.684;2023-02-01T18:18:43;98837.44;;;6.85;53.83
22753;BME280;11543;43.144;24.684;2023-02-01T18:21:09;98831.28;;;6.85;53.66
22753;BME280;11543;43.144;24.684;2023-02-01T18:23:35;98833.81;;;6.86;53.78
22753;BME280;11543;43.144;24.684;2023-02-01T18:26:03;98838.63;;;6.92;53.48
22753;BME280;11543;43.144;24.684;2023-02-01T18:28:29;98834.75;;;6.96;53.71
22753;BME280;11543;43.144;24.684;2023-02-01T18:30:54;98834.75;;;6.96;52.85
22753;BME280;11543;43.144;24.684;2023-02-01T18:33:30;98828.28;;;6.99;52.84
22753;BME280;11543;43.144;24.684;2023-02-01T18:35:55;98830.81;;;7.00;52.42
22753;BME280;11543;43.144;24.684;2023-02-01T18:38:49;98839.59;;;7.12;53.22
22753;BME280;11543;43.144;24.684;2023-02-01T18:44:55;98836.44;;;6.97;52.85
22753;BME280;11543;43.144;24.684;2023-02-01T18:47:23;98832.53;;;7.01;52.32
22753;BME280;11543;43.144;24.684;2023-02-01T18:49:51;98838.75;;;7.12;52.76
22753;BME280;11543;43.144;24.684;2023-02-01T18:52:22;98831.66;;;7.01;53.09
22753;BME280;11543;43.144;24.684;2023-02-01T18:54:48;98822.13;;;6.98;53.06
22753;BME280;11543;43.144;24.684;2023-02-01T18:57:35;98843.22;;;7.11;52.89
22753;BME280;11543;43.144;24.684;2023-02-01T19:03:34;98825.41;;;6.91;53.41
22753;BME280;11543;43.144;24.684;2023-02-01T19:06:00;98827.09;;;6.92;53.47
22753;BME280;11543;43.144;24.684;2023-02-01T19:08:25;98846.56;;;7.03;53.78
22753;BME280;11543;43.144;24.684;2023-02-01T19:11:17;98818.06;;;6.83;53.07
22753;BME280;11543;43.144;24.684;2023-02-01T19:14:01;98819.75;;;6.84;53.85
22753;BME280;11543;43.144;24.684;2023-02-01T19:16:27;98830.88;;;6.89;53.44
22753;BME280;11543;43.144;24.684;2023-02-01T19:18:52;98831.84;;;6.88;53.51
22753;BME280;11543;43.144;24.684;2023-02-01T19:21:18;98820.03;;;6.81;53.78
22753;BME280;11543;43.144;24.684;2023-02-01T19:23:43;98824.25;;;6.84;53.59
22753;BME280;11543;43.144;24.684;2023-02-01T19:26:15;98820.69;;;6.74;53.38
22753;BME280;11543;43.144;24.684;2023-02-01T19:28:53;98829.47;;;6.85;53.55
22753;BME280;11543;43.144;24.684;2023-02-01T19:31:18;98830.44;;;6.84;53.45
22753;BME280;11543;43.144;24.684;2023-02-01T19:33:44;98820.81;;;6.72;53.09
22753;BME280;11543;43.144;24.684;2023-02-01T19:36:09;98836.28;;;6.78;53.61
22753;BME280;11543;43.144;24.684;2023-02-01T19:38:35;98833.03;;;6.75;53.22
22753;BME280;11543;43.144;24.684;2023-02-01T19:41:01;98817.25;;;6.62;53.41
22753;BME280;11543;43.144;24.684;2023-02-01T19:43:27;98806.91;;;6.48;53.77
22753;BME280;11543;43.144;24.684;2023-02-01T19:45:53;98812.69;;;6.53;53.99
22753;BME280;11543;43.144;24.684;2023-02-01T19:48:19;98820.13;;;6.49;53.51
22753;BME280;11543;43.144;24.684;2023-02-01T19:50:47;98832.78;;;6.57;53.78
22753;BME280;11543;43.144;24.684;2023-02-01T19:53:13;98814.47;;;6.43;53.78
22753;BME280;11543;43.144;24.684;2023-02-01T19:58:30;98801.47;;;6.28;53.38
22753;BME280;11543;43.144;24.684;2023-02-01T20:00:56;98816.94;;;6.34;53.23
22753;BME280;11543;43.144;24.684;2023-02-01T20:03:23;98816.66;;;6.37;53.63
22753;BME280;11543;43.144;24.684;2023-02-01T20:05:53;98820.31;;;6.36;52.71
22753;BME280;11543;43.144;24.684;2023-02-01T20:12:03;98815.03;;;6.25;53.01
22753;BME280;11543;43.144;24.684;2023-02-01T20:14:34;98826.16;;;6.30;52.56
22753;BME280;11543;43.144;24.684;2023-02-01T20:17:00;98834.88;;;6.32;52.82
22753;BME280;11543;43.144;24.684;2023-02-01T20:19:25;98839.69;;;6.38;52.74
22753;BME280;11543;43.144;24.684;2023-02-01T20:21:50;98839.09;;;6.35;52.62
22753;BME280;11543;43.144;24.684;2023-02-01T20:24:17;98845.00;;;6.38;52.50
22753;BME280;11543;43.144;24.684;2023-02-01T20:26:50;98829.66;;;6.31;52.64
22753;BME280;11543;43.144;24.684;2023-02-01T20:29:19;98844.75;;;6.42;52.41
22753;BME280;11543;43.144;24.684;2023-02-01T20:31:45;98834.88;;;6.32;52.67
22753;BME280;11543;43.144;24.684;2023-02-01T20:34:11;98828.69;;;6.32;52.83
22753;BME280;11543;43.144;24.684;2023-02-01T20:36:37;98832.91;;;6.34;53.00
22753;BME280;11543;43.144;24.684;2023-02-01T20:39:04;98833.63;;;6.36;52.73
22753;BME280;11543;43.144;24.684;2023-02-01T20:41:40;98825.56;;;6.27;52.68
22753;BME280;11543;43.144;24.684;2023-02-01T20:44:43;98828.69;;;6.32;52.42
22753;BME280;11543;43.144;24.684;2023-02-01T20:47:09;98812.69;;;6.32;53.00
22753;BME280;11543;43.144;24.684;2023-02-01T20:52:26;98835.78;;;6.43;53.13
22753;BME280;11543;43.144;24.684;2023-02-01T20:54:52;98823.69;;;6.38;53.40
22753;BME280;11543;43.144;24.684;2023-02-01T20:57:17;98815.63;;;6.50;53.61
22753;BME280;11543;43.144;24.684;2023-02-01T21:02:54;98834.59;;;6.77;53.63
22753;BME280;11543;43.144;24.684;2023-02-01T21:05:20;98815.91;;;6.47;53.59
22753;BME280;11543;43.144;24.684;2023-02-01T21:07:45;98830.84;;;6.59;54.15
22753;BME280;11543;43.144;24.684;2023-02-01T21:10:11;98832.00;;;6.66;54.16
22753;BME280;11543;43.144;24.684;2023-02-01T21:12:37;98810.03;;;6.53;53.85
22753;BME280;11543;43.144;24.684;2023-02-01T21:15:03;98819.91;;;6.62;54.33
22753;BME280;11543;43.144;24.684;2023-02-01T21:17:30;98809.97;;;6.64;54.67
22753;BME280;11543;43.144;24.684;2023-02-01T21:19:57;98795.53;;;6.66;54.42
22753;BME280;11543;43.144;24.684;2023-02-01T21:22:22;98791.22;;;6.75;54.28
22753;BME280;11543;43.144;24.684;2023-02-01T21:24:48;98801.88;;;6.96;54.55
22753;BME280;11543;43.144;24.684;2023-02-01T21:27:13;98789.19;;;6.88;54.14
22753;BME280;11543;43.144;24.684;2023-02-01T21:29:42;98799.53;;;7.02;54.44
22753;BME280;11543;43.144;24.684;2023-02-01T21:32:10;98796.06;;;7.12;54.27
22753;BME280;11543;43.144;24.684;2023-02-01T21:34:36;98796.63;;;7.15;54.40
22753;BME280;11543;43.144;24.684;2023-02-01T21:37:01;98789.88;;;7.11;53.98
22753;BME280;11543;43.144;24.684;2023-02-01T21:39:27;98784.78;;;6.98;53.97
22753;BME280;11543;43.144;24.684;2023-02-01T21:41:54;98764.69;;;6.94;54.11
22753;BME280;11543;43.144;24.684;2023-02-01T21:44:41;98782.00;;;7.10;54.42
22753;BME280;11543;43.144;24.684;2023-02-01T21:47:09;98755.56;;;6.97;54.13
22753;BME280;11543;43.144;24.684;2023-02-01T21:49:57;98762.72;;;6.96;53.97
22753;BME280;11543;43.144;24.684;2023-02-01T21:52:25;98773.91;;;7.21;54.17
22753;BME280;11543;43.144;24.684;2023-02-01T21:54:52;98760.81;;;7.08;53.50
22753;BME280;11543;43.144;24.684;2023-02-01T21:57:24;98768.44;;;6.92;54.54
22753;BME280;11543;43.144;24.684;2023-02-01T21:59:49;98786.72;;;6.96;53.67
22753;BME280;11543;43.144;24.684;2023-02-01T22:02:16;98778.09;;;7.14;54.38
22753;BME280;11543;43.144;24.684;2023-02-01T22:04:42;98771.50;;;7.18;54.10
22753;BME280;11543;43.144;24.684;2023-02-01T22:07:10;98789.53;;;7.35;54.12
22753;BME280;11543;43.144;24.684;2023-02-01T22:09:35;98779.34;;;7.10;53.54
22753;BME280;11543;43.144;24.684;2023-02-01T22:12:01;98788.50;;;7.17;53.94
22753;BME280;11543;43.144;24.684;2023-02-01T22:14:26;98782.00;;;7.10;53.14
22753;BME280;11543;43.144;24.684;2023-02-01T22:16:52;98795.53;;;7.18;53.13
22753;BME280;11543;43.144;24.684;2023-02-01T22:19:18;98807.81;;;6.99;53.29
22753;BME280;11543;43.144;24.684;2023-02-01T22:21:45;98804.56;;;6.75;53.99
22753;BME280;11543;43.144;24.684;2023-02-01T22:24:23;98801.78;;;6.56;54.60
22753;BME280;11543;43.144;24.684;2023-02-01T22:30:42;98823.44;;;6.42;55.40
22753;BME280;11543;43.144;24.684;2023-02-01T22:33:08;98820.31;;;6.36;55.31
22753;BME280;11543;43.144;24.684;2023-02-01T22:35:39;98819.13;;;6.29;55.84
22753;BME280;11543;43.144;24.684;2023-02-01T22:38:17;98835.06;;;6.41;56.07
22753;BME280;11543;43.144;24.684;2023-02-01T22:41:30;98840.84;;;6.46;55.45
22753;BME280;11543;43.144;24.684;2023-02-01T22:48:15;98856.59;;;6.49;55.18
22753;BME280;11543;43.144;24.684;2023-02-01T22:50:43;98840.72;;;6.26;56.07
22753;BME280;11543;43.144;24.684;2023-02-01T22:53:09;98854.50;;;6.31;56.65
22753;BME280;11543;43.144;24.684;2023-02-01T22:55:35;98843.41;;;6.15;57.44
22753;BME280;11543;43.144;24.684;2023-02-01T23:01:34;98858.22;;;6.08;57.73
22753;BME280;11543;43.144;24.684;2023-02-01T23:04:02;98872.72;;;6.04;57.91
22753;BME280;11543;43.144;24.684;2023-02-01T23:06:32;98851.09;;;5.97;57.83
22753;BME280;11543;43.144;24.684;2023-02-01T23:09:06;98864.88;;;6.02;57.77
22753;BME280;11543;43.144;24.684;2023-02-01T23:11:40;98863.28;;;6.00;58.13
22753;BME280;11543;43.144;24.684;2023-02-01T23:14:10;98856.28;;;5.88;58.49
22753;BME280;11543;43.144;24.684;2023-02-01T23:16:36;98900.44;;;6.01;58.15
22753;BME280;11543;43.144;24.684;2023-02-01T23:19:04;98866.94;;;5.88;57.42
22753;BME280;11543;43.144;24.684;2023-02-01T23:21:29;98869.13;;;5.94;58.03
22753;BME280;11543;43.144;24.684;2023-02-01T23:23:57;98871.53;;;5.97;57.66
22753;BME280;11543;43.144;24.684;2023-02-01T23:26:28;98874.41;;;6.05;58.29
22753;BME280;11543;43.144;24.684;2023-02-01T23:49:18;98832.25;;;6.21;58.49
22753;BME280;11543;43.144;24.684;2023-02-01T23:51:59;98845.69;;;6.20;58.76
22753;BME280;11543;43.144;24.684;2023-02-01T23:54:31;98846.97;;;6.36;58.30
22753;BME280;11543;43.144;24.684;2023-02-01T23:56:57;98842.13;;;6.30;58.20
